createdAt,value
2022-12-14T00:00:36.970Z,99994.09
2022-12-14T00:03:06.528Z,99989.47
2022-12-14T00:05:37.282Z,99983.16
2022-12-14T00:08:06.640Z,99981.63
2022-12-14T00:10:39.111Z,99965.25
2022-12-14T00:13:10.189Z,99970.34
2022-12-14T00:15:39.884Z,99948.28
2022-12-14T00:18:10.018Z,99949.97
2022-12-14T00:20:39.338Z,99951.91
2022-12-14T00:23:09.101Z,99959.69
2022-12-14T00:25:39.733Z,99939.06
2022-12-14T00:28:09.052Z,99951.41
2022-12-14T00:30:38.264Z,99956.78
2022-12-14T00:33:07.559Z,99951.81
2022-12-14T00:35:36.772Z,99946.34
2022-12-14T00:38:05.992Z,99945.88
2022-12-14T00:40:35.242Z,99947.25
2022-12-14T00:43:05.940Z,99929.88
2022-12-14T00:45:35.256Z,99863.81
2022-12-14T00:48:04.616Z,99927.94
2022-12-14T00:50:33.934Z,99914.13
2022-12-14T00:53:03.199Z,99925.75
2022-12-14T00:55:32.371Z,99906.84
2022-12-14T00:58:02.009Z,99914.25
2022-12-14T01:00:32.665Z,99916.56
2022-12-14T01:03:01.942Z,99902.63
2022-12-14T01:05:31.308Z,99909.78
2022-12-14T01:08:00.583Z,99913.41
2022-12-14T01:10:29.916Z,99907.09
2022-12-14T01:12:59.163Z,99911.47
2022-12-14T01:15:28.357Z,99893.63
2022-12-14T01:17:58.968Z,99903.09
2022-12-14T01:20:28.179Z,99902.09
2022-12-14T01:22:57.894Z,99885.47
2022-12-14T01:25:27.406Z,99902.72
2022-12-14T01:27:56.786Z,99867.06
2022-12-14T01:30:26.032Z,99892.91
2022-12-14T01:32:55.282Z,99873.66
2022-12-14T01:35:26.062Z,99892.31
2022-12-14T01:37:55.251Z,99879.59
2022-12-14T01:40:24.576Z,99890.63
2022-12-14T01:42:53.745Z,99889.03
2022-12-14T01:45:24.288Z,99859.50
2022-12-14T01:47:58.279Z,99868.81
2022-12-14T01:50:35.642Z,99836.34
2022-12-14T01:53:09.442Z,99872.94
2022-12-14T01:55:42.102Z,99860.09
2022-12-14T01:58:18.303Z,99863.38
2022-12-14T02:00:47.693Z,99859.88
2022-12-14T02:03:20.764Z,99861.78
2022-12-14T02:05:54.991Z,99849.69
2022-12-14T02:08:25.894Z,99853.91
2022-12-14T02:10:56.806Z,99837.00
2022-12-14T02:13:29.849Z,99844.16
2022-12-14T02:15:59.430Z,99841.72
2022-12-14T02:18:31.090Z,99837.13
2022-12-14T02:21:26.373Z,99829.47
2022-12-14T02:24:35.672Z,99834.22
2022-12-14T02:27:44.073Z,99830.56
2022-12-14T02:30:17.610Z,99831.69
2022-12-14T02:32:57.243Z,99838.19
2022-12-14T02:35:36.023Z,99836.03
2022-12-14T02:38:16.732Z,99823.09
2022-12-14T02:41:00.887Z,99828.41
2022-12-14T02:43:34.943Z,99830.81
2022-12-14T02:46:20.111Z,99820.16
2022-12-14T02:48:56.302Z,99803.56
2022-12-14T02:51:34.857Z,99815.56
2022-12-14T02:54:13.723Z,99801.28
2022-12-14T02:56:49.392Z,99811.19
2022-12-14T02:59:19.975Z,99802.00
2022-12-14T03:01:52.818Z,99807.22
2022-12-14T03:04:22.303Z,99803.94
2022-12-14T03:06:59.212Z,99806.75
2022-12-14T03:09:31.229Z,99800.44
2022-12-14T03:12:04.969Z,99801.91
2022-12-14T03:14:38.283Z,99788.94
2022-12-14T03:17:19.391Z,99792.44
2022-12-14T03:19:53.744Z,99787.84
2022-12-14T03:22:28.842Z,99781.66
2022-12-14T03:25:02.554Z,99791.00
2022-12-14T03:27:35.172Z,99779.34
2022-12-14T03:30:08.983Z,99785.44
2022-12-14T03:32:44.136Z,99777.78
2022-12-14T03:35:16.982Z,99775.97
2022-12-14T03:37:53.254Z,99768.84
2022-12-14T03:40:32.375Z,99770.31
2022-12-14T03:43:07.574Z,99755.53
2022-12-14T03:45:48.200Z,99767.25
2022-12-14T03:48:29.540Z,99759.53
2022-12-14T03:51:07.371Z,99755.88
2022-12-14T03:53:43.652Z,99748.72
2022-12-14T03:56:19.570Z,99733.25
2022-12-14T03:59:00.133Z,99741.84
2022-12-14T04:01:39.621Z,99737.38
2022-12-14T04:04:15.520Z,99731.31
2022-12-14T04:06:52.153Z,99728.91
2022-12-14T04:09:33.832Z,99725.50
2022-12-14T04:12:25.378Z,99720.91
2022-12-14T04:15:21.524Z,99714.25
2022-12-14T04:18:12.412Z,99719.09
2022-12-14T04:20:48.105Z,99716.66
2022-12-14T04:23:41.521Z,99718.13
2022-12-14T04:26:15.262Z,99715.34
2022-12-14T04:29:07.342Z,99717.88
2022-12-14T04:31:41.491Z,99723.34
2022-12-14T04:34:14.341Z,99713.66
2022-12-14T04:36:49.723Z,99698.19
2022-12-14T04:39:25.936Z,99714.59
2022-12-14T04:42:00.093Z,99697.44
2022-12-14T04:44:33.760Z,99699.63
2022-12-14T04:47:07.360Z,99704.81
2022-12-14T04:49:41.801Z,99694.78
2022-12-14T04:52:16.443Z,99691.50
2022-12-14T04:54:54.630Z,99692.59
2022-12-14T04:57:31.809Z,99672.50
2022-12-14T05:00:02.996Z,99681.59
2022-12-14T05:02:44.826Z,99679.78
2022-12-14T05:05:19.268Z,99676.16
2022-12-14T05:07:56.512Z,99665.25
2022-12-14T05:10:34.234Z,99653.41
2022-12-14T05:13:08.893Z,99664.66
2022-12-14T05:15:45.284Z,99658.00
2022-12-14T05:18:15.385Z,99655.00
2022-12-14T05:20:45.044Z,99647.00
2022-12-14T05:23:15.842Z,99654.63
2022-12-14T05:25:45.352Z,99653.88
2022-12-14T05:28:18.461Z,99661.16
2022-12-14T05:30:49.111Z,99652.69
2022-12-14T05:33:20.847Z,99630.91
2022-12-14T05:35:50.109Z,99644.47
2022-12-14T05:38:20.812Z,99647.13
2022-12-14T05:40:50.036Z,99639.84
2022-12-14T05:43:19.343Z,99632.25
2022-12-14T05:45:48.846Z,99629.22
2022-12-14T05:48:18.180Z,99621.84
2022-12-14T05:50:47.462Z,99622.69
2022-12-14T05:53:16.712Z,99622.09
2022-12-14T05:55:50.054Z,99614.94
2022-12-14T05:58:19.862Z,99602.25
2022-12-14T06:00:49.116Z,99603.47
2022-12-14T06:03:18.477Z,99608.53
2022-12-14T06:05:47.722Z,99602.13
2022-12-14T06:08:17.163Z,99600.31
2022-12-14T06:10:46.331Z,99590.78
2022-12-14T06:13:17.729Z,99598.75
2022-12-14T06:15:47.138Z,99585.31
2022-12-14T06:18:16.602Z,99554.13
2022-12-14T06:20:45.873Z,99577.13
2022-12-14T06:23:15.162Z,99585.19
2022-12-14T06:25:44.407Z,99579.88
2022-12-14T06:28:13.687Z,99579.78
2022-12-14T06:30:44.444Z,99576.88
2022-12-14T06:33:13.742Z,99572.03
2022-12-14T06:35:44.904Z,99583.78
2022-12-14T06:38:15.382Z,99583.78
2022-12-14T06:40:44.890Z,99561.41
2022-12-14T06:43:14.293Z,99585.44
2022-12-14T06:45:44.979Z,99579.28
2022-12-14T06:48:14.232Z,99529.88
2022-12-14T06:50:43.475Z,99577.72
2022-12-14T06:53:14.122Z,99577.25
2022-12-14T06:55:43.689Z,99581.44
2022-12-14T06:58:18.623Z,99566.50
2022-12-14T07:00:49.683Z,99562.47
2022-12-14T07:03:19.017Z,99575.53
2022-12-14T07:05:49.205Z,99571.41
2022-12-14T07:08:18.599Z,99571.16
2022-12-14T07:10:47.821Z,99576.25
2022-12-14T07:13:17.072Z,99576.97
2022-12-14T07:15:46.533Z,99569.63
2022-12-14T07:18:17.183Z,99571.41
2022-12-14T07:20:46.495Z,99570.44
2022-12-14T07:23:15.924Z,99557.53
2022-12-14T07:25:45.323Z,99553.91
2022-12-14T07:28:18.682Z,99554.97
2022-12-14T07:30:48.294Z,99555.97
2022-12-14T07:33:19.729Z,99555.34
2022-12-14T07:35:49.044Z,99562.38
2022-12-14T07:38:18.521Z,99558.75
2022-12-14T07:40:47.759Z,99560.06
2022-12-14T07:43:19.000Z,99563.94
2022-12-14T07:45:48.470Z,99574.47
2022-12-14T07:48:17.711Z,99571.69
2022-12-14T07:50:48.422Z,99566.34
2022-12-14T07:53:17.854Z,99568.66
2022-12-14T07:55:47.163Z,99566.59
2022-12-14T07:58:16.450Z,99563.47
2022-12-14T08:00:48.694Z,99554.25
2022-12-14T08:03:18.043Z,99558.69
2022-12-14T08:05:48.772Z,99561.84
2022-12-14T08:08:18.111Z,99561.94
2022-12-14T08:10:50.253Z,99550.47
2022-12-14T08:13:19.539Z,99551.84
2022-12-14T08:15:48.868Z,99548.59
2022-12-14T08:18:18.242Z,99553.00
2022-12-14T08:20:53.443Z,99551.50
2022-12-14T08:23:22.932Z,99555.16
2022-12-14T08:25:55.220Z,99555.94
2022-12-14T08:28:25.695Z,99549.88
2022-12-14T08:30:55.511Z,99547.13
2022-12-14T08:33:25.160Z,99557.09
2022-12-14T08:35:55.875Z,99553.25
2022-12-14T08:38:25.722Z,99560.75
2022-12-14T08:40:55.241Z,99552.41
2022-12-14T08:43:25.230Z,99556.66
2022-12-14T08:45:56.125Z,99561.69
2022-12-14T08:48:25.700Z,99556.66
2022-12-14T08:50:56.553Z,99559.59
2022-12-14T08:53:25.868Z,99544.78
2022-12-14T08:55:55.201Z,99539.28
2022-12-14T08:58:24.929Z,99553.91
2022-12-14T09:01:03.363Z,99556.56
2022-12-14T09:03:33.057Z,99553.84
2022-12-14T09:06:09.615Z,99553.53
2022-12-14T09:08:39.742Z,99556.56
2022-12-14T09:11:13.873Z,99553.47
2022-12-14T09:13:44.046Z,99521.56
2022-12-14T09:16:15.584Z,99549.94
2022-12-14T09:18:45.059Z,99551.34
2022-12-14T09:21:16.290Z,99544.22
2022-12-14T09:23:46.362Z,99551.50
2022-12-14T09:26:18.336Z,99542.28
2022-12-14T09:28:49.030Z,99548.63
2022-12-14T09:31:20.695Z,99547.84
2022-12-14T09:33:50.429Z,99547.00
2022-12-14T09:36:22.861Z,99550.28
2022-12-14T09:38:55.449Z,99548.34
2022-12-14T09:41:36.837Z,99560.00
2022-12-14T09:44:18.434Z,99556.91
2022-12-14T09:46:58.974Z,99549.69
2022-12-14T09:49:31.453Z,99542.84
2022-12-14T09:52:03.803Z,99540.50
2022-12-14T09:54:38.211Z,99551.69
2022-12-14T09:57:13.122Z,99551.84
2022-12-14T09:59:42.890Z,99550.94
2022-12-14T10:02:31.407Z,99548.25
2022-12-14T10:05:18.231Z,99554.72
2022-12-14T10:08:00.163Z,99529.78
2022-12-14T10:10:38.732Z,99550.66
2022-12-14T10:13:19.113Z,99544.75
2022-12-14T10:15:56.253Z,99552.00
2022-12-14T10:19:00.051Z,99539.94
2022-12-14T10:21:44.623Z,99533.97
2022-12-14T10:24:22.161Z,99535.16
2022-12-14T10:26:53.517Z,99505.72
2022-12-14T10:29:32.463Z,99507.06
2022-12-14T10:32:09.274Z,99522.97
2022-12-14T10:34:43.781Z,99528.00
2022-12-14T10:37:24.579Z,99530.03
2022-12-14T10:40:32.898Z,99515.09
2022-12-14T10:43:27.130Z,99518.22
2022-12-14T10:46:11.814Z,99517.53
2022-12-14T10:48:49.496Z,99516.28
2022-12-14T10:51:23.531Z,99511.22
2022-12-14T10:53:57.582Z,99511.53
2022-12-14T10:56:33.237Z,99489.59
2022-12-14T10:59:32.197Z,99491.53
2022-12-14T11:02:09.534Z,99502.78
2022-12-14T11:04:41.393Z,99510.69
2022-12-14T11:07:13.733Z,99496.88
2022-12-14T11:09:43.882Z,99491.41
2022-12-14T11:12:22.703Z,99486.22
2022-12-14T11:14:57.892Z,99482.84
2022-12-14T11:17:39.625Z,99473.84
2022-12-14T11:20:22.342Z,99475.53
2022-12-14T11:22:53.616Z,99473.84
2022-12-14T11:25:32.336Z,99475.69
2022-12-14T11:28:07.875Z,99481.41
2022-12-14T11:30:37.322Z,99470.72
2022-12-14T11:33:07.477Z,99453.03
2022-12-14T11:35:37.080Z,99461.59
2022-12-14T11:38:06.952Z,99458.78
2022-12-14T11:40:38.447Z,99452.00
2022-12-14T11:43:25.297Z,99453.00
2022-12-14T11:45:56.910Z,99460.88
2022-12-14T11:48:28.305Z,99446.25
2022-12-14T11:51:11.324Z,99449.22
2022-12-14T11:53:40.880Z,99444.88
2022-12-14T11:56:16.914Z,99445.16
2022-12-14T11:58:54.753Z,99451.19
2022-12-14T12:01:27.342Z,99438.66
2022-12-14T12:04:00.780Z,99438.97
2022-12-14T12:06:31.414Z,99438.09
2022-12-14T12:09:03.196Z,99450.03
2022-12-14T12:11:35.687Z,99454.84
2022-12-14T12:14:16.150Z,99441.91
2022-12-14T12:16:46.665Z,99442.56
2022-12-14T12:19:24.532Z,99438.34
2022-12-14T12:21:56.572Z,99439.22
2022-12-14T12:24:30.951Z,99439.50
2022-12-14T12:27:02.874Z,99432.47
2022-12-14T12:29:40.914Z,99434.16
2022-12-14T12:32:16.951Z,99434.16
2022-12-14T12:34:55.704Z,99432.16
2022-12-14T12:37:30.454Z,99442.03
2022-12-14T12:40:04.993Z,99443.19
2022-12-14T12:42:42.672Z,99447.09
2022-12-14T12:45:21.473Z,99426.00
2022-12-14T12:47:55.217Z,99430.22
2022-12-14T12:50:29.774Z,99430.50
2022-12-14T12:53:04.298Z,99432.00
2022-12-14T12:55:37.792Z,99425.84
2022-12-14T12:58:10.437Z,99431.31
2022-12-14T13:00:42.761Z,99422.72
2022-12-14T13:03:20.147Z,99412.84
2022-12-14T13:05:50.662Z,99425.66
2022-12-14T13:08:25.341Z,99428.22
2022-12-14T13:13:51.284Z,99428.75
2022-12-14T13:16:27.862Z,99434.34
2022-12-14T13:19:25.441Z,99431.38
2022-12-14T13:21:57.125Z,99426.03
2022-12-14T13:24:28.904Z,99430.94
2022-12-14T13:27:34.290Z,99433.06
2022-12-14T13:30:21.876Z,99428.56
2022-12-14T13:33:06.464Z,99433.88
2022-12-14T13:35:49.632Z,99420.81
2022-12-14T13:38:56.344Z,99430.38
2022-12-14T13:41:35.422Z,99421.84
2022-12-14T13:44:35.713Z,99420.25
2022-12-14T13:47:14.454Z,99421.06
2022-12-14T13:50:18.504Z,99418.59
2022-12-14T13:52:44.601Z,99417.88
2022-12-14T13:55:36.574Z,99433.47
2022-12-14T13:58:15.564Z,99424.06
2022-12-14T14:00:59.954Z,99418.84
2022-12-14T14:03:51.309Z,99412.16
2022-12-14T14:06:40.228Z,99428.56
2022-12-14T14:09:46.422Z,99429.38
2022-12-14T14:12:38.038Z,99422.22
2022-12-14T14:15:34.449Z,99435.31
2022-12-14T14:18:24.122Z,99433.53
2022-12-14T14:20:59.014Z,99443.63
2022-12-14T14:23:33.810Z,99434.09
2022-12-14T14:26:27.206Z,99419.16
2022-12-14T14:29:25.686Z,99437.41
2022-12-14T14:31:58.393Z,99432.75
2022-12-14T14:34:51.292Z,99425.31
2022-12-14T14:37:40.701Z,99437.56
2022-12-14T14:40:51.359Z,99404.19
2022-12-14T14:43:28.933Z,99436.06
2022-12-14T14:46:03.003Z,99434.78
2022-12-14T14:48:36.893Z,99438.31
2022-12-14T14:51:17.863Z,99448.59
2022-12-14T14:53:50.364Z,99445.34
2022-12-14T14:56:40.239Z,99450.84
2022-12-14T14:59:39.412Z,99450.84
2022-12-14T15:02:34.289Z,99452.94
2022-12-14T15:07:56.822Z,99455.66
2022-12-14T15:10:33.943Z,99462.59
2022-12-14T15:13:08.986Z,99467.94
2022-12-14T15:15:44.833Z,99469.84
2022-12-14T15:18:22.167Z,99472.78
2022-12-14T15:20:58.182Z,99475.72
2022-12-14T15:23:33.624Z,99479.63
2022-12-14T15:26:07.435Z,99474.53
2022-12-14T15:28:41.233Z,99481.97
2022-12-14T15:31:10.860Z,99483.34
2022-12-14T15:33:44.008Z,99496.06
2022-12-14T15:36:18.551Z,99492.16
2022-12-14T15:38:56.646Z,99486.25
2022-12-14T15:41:28.877Z,99486.97
2022-12-14T15:44:02.142Z,99491.78
2022-12-14T15:46:34.033Z,99494.69
2022-12-14T15:49:07.314Z,99483.22
2022-12-14T15:51:39.594Z,99464.66
2022-12-14T15:54:16.642Z,99474.38
2022-12-14T15:56:48.710Z,99485.53
2022-12-14T15:59:23.576Z,99489.84
2022-12-14T16:02:04.808Z,99490.19
2022-12-14T16:04:39.088Z,99492.69
2022-12-14T16:07:18.214Z,99485.38
2022-12-14T16:09:51.872Z,99491.81
2022-12-14T16:12:25.094Z,99496.34
2022-12-14T16:14:58.133Z,99504.09
2022-12-14T16:17:31.151Z,99489.44
2022-12-14T16:20:03.525Z,99496.19
2022-12-14T16:22:34.473Z,99508.78
2022-12-14T16:25:19.235Z,99507.94
2022-12-14T16:27:51.507Z,99509.88
2022-12-14T16:30:30.090Z,99499.13
2022-12-14T16:33:09.502Z,99509.91
2022-12-14T16:35:39.763Z,99510.91
2022-12-14T16:38:14.455Z,99513.13
2022-12-14T16:40:54.042Z,99514.00
2022-12-14T16:43:28.617Z,99496.72
2022-12-14T16:46:15.294Z,99499.50
2022-12-14T16:49:10.824Z,99510.00
2022-12-14T16:52:06.294Z,99515.22
2022-12-14T16:54:34.692Z,99514.63
2022-12-14T16:57:07.222Z,99527.69
2022-12-14T16:59:43.627Z,99535.19
2022-12-14T17:02:28.483Z,99533.97
2022-12-14T17:05:00.053Z,99516.69
2022-12-14T17:07:34.406Z,99525.03
2022-12-14T17:10:04.012Z,99529.38
2022-12-14T17:12:33.584Z,99538.78
2022-12-14T17:15:03.067Z,99531.19
2022-12-14T17:17:35.302Z,99550.63
2022-12-14T17:20:13.606Z,99552.03
2022-12-14T17:22:49.456Z,99554.09
2022-12-14T17:25:20.089Z,99555.28
2022-12-14T17:27:50.540Z,99545.97
2022-12-14T17:30:22.142Z,99561.53
2022-12-14T17:32:52.486Z,99561.53
2022-12-14T17:35:24.262Z,99561.16
2022-12-14T17:37:55.552Z,99546.78
2022-12-14T17:40:25.792Z,99560.44
2022-12-14T17:42:58.221Z,99563.31
2022-12-14T17:45:30.645Z,99563.03
2022-12-14T17:48:00.614Z,99578.88
2022-12-14T17:50:31.204Z,99566.69
2022-12-14T17:53:02.987Z,99566.06
2022-12-14T17:55:32.752Z,99567.59
2022-12-14T17:58:02.343Z,99577.69
2022-12-14T18:00:49.987Z,99577.91
2022-12-14T18:03:20.546Z,99558.28
2022-12-14T18:05:51.564Z,99581.38
2022-12-14T18:08:26.819Z,99583.31
2022-12-14T18:10:59.264Z,99555.59
2022-12-14T18:13:31.516Z,99585.44
2022-12-14T18:16:02.546Z,99578.66
2022-12-14T18:18:32.422Z,99594.72
2022-12-14T18:21:05.231Z,99587.88
2022-12-14T18:23:36.326Z,99594.59
2022-12-14T18:26:06.083Z,99601.72
2022-12-14T18:28:36.914Z,99595.63
2022-12-14T18:31:09.898Z,99595.84
2022-12-14T18:33:40.606Z,99589.75
2022-12-14T18:36:13.062Z,99587.44
2022-12-14T18:38:44.134Z,99584.25
2022-12-14T18:41:20.735Z,99597.44
2022-12-14T18:43:50.852Z,99602.75
2022-12-14T18:46:20.471Z,99607.81
2022-12-14T18:48:50.179Z,99594.72
2022-12-14T18:51:23.799Z,99603.63
2022-12-14T18:53:56.049Z,99588.28
2022-12-14T18:56:28.332Z,99597.38
2022-12-14T18:59:00.563Z,99607.19
2022-12-14T19:01:30.319Z,99604.75
2022-12-14T19:04:00.122Z,99610.47
2022-12-14T19:06:45.796Z,99600.78
2022-12-14T19:09:17.214Z,99610.56
2022-12-14T19:11:47.033Z,99621.63
2022-12-14T19:14:16.624Z,99619.72
2022-12-14T19:16:46.283Z,99613.78
2022-12-14T19:19:18.759Z,99617.69
2022-12-14T19:21:50.833Z,99616.13
2022-12-14T19:24:22.922Z,99595.72
2022-12-14T19:26:52.473Z,99607.66
2022-12-14T19:29:23.574Z,99612.38
2022-12-14T19:31:54.361Z,99622.81
2022-12-14T19:34:24.775Z,99617.19
2022-12-14T19:36:54.462Z,99621.38
2022-12-14T19:39:25.724Z,99626.59
2022-12-14T19:41:55.974Z,99620.03
2022-12-14T19:44:25.643Z,99624.56
2022-12-14T19:46:55.930Z,99638.03
2022-12-14T19:49:27.023Z,99631.19
2022-12-14T19:51:56.824Z,99633.19
2022-12-14T19:54:28.650Z,99637.63
2022-12-14T19:56:59.361Z,99640.09
2022-12-14T19:59:29.972Z,99641.38
2022-12-14T20:01:59.804Z,99642.31
2022-12-14T20:04:29.803Z,99640.44
2022-12-14T20:06:59.480Z,99639.03
2022-12-14T20:09:30.643Z,99642.22
2022-12-14T20:12:00.152Z,99645.31
2022-12-14T20:14:29.732Z,99642.88
2022-12-14T20:16:59.233Z,99633.66
2022-12-14T20:19:29.075Z,99634.72
2022-12-14T20:21:58.654Z,99629.19
2022-12-14T20:24:29.700Z,99640.84
2022-12-14T20:26:59.625Z,99651.88
2022-12-14T20:29:29.322Z,99649.22
2022-12-14T20:31:59.263Z,99656.31
2022-12-14T20:34:29.283Z,99638.31
2022-12-14T20:36:58.982Z,99647.97
2022-12-14T20:39:30.162Z,99660.16
2022-12-14T20:41:59.883Z,99672.00
2022-12-14T20:44:30.413Z,99665.31
2022-12-14T20:47:00.151Z,99669.97
2022-12-14T20:49:33.152Z,99671.03
2022-12-14T20:52:02.859Z,99692.75
2022-12-14T20:54:34.034Z,99688.28
2022-12-14T20:57:03.893Z,99695.31
2022-12-14T20:59:33.752Z,99702.94
2022-12-14T21:02:03.839Z,99694.69
2022-12-14T21:04:33.633Z,99704.00
2022-12-14T21:07:03.258Z,99710.44
2022-12-14T21:09:34.273Z,99708.03
2022-12-14T21:12:22.113Z,99712.44
2022-12-14T21:14:53.982Z,99717.31
2022-12-14T21:17:25.255Z,99710.06
2022-12-14T21:19:55.594Z,99715.31
2022-12-14T21:22:27.532Z,99723.16
2022-12-14T21:25:04.721Z,99723.41
2022-12-14T21:27:38.484Z,99731.00
2022-12-14T21:30:11.317Z,99732.34
2022-12-14T21:32:41.296Z,99724.56
2022-12-14T21:35:13.377Z,99739.88
2022-12-14T21:37:43.032Z,99724.06
2022-12-14T21:40:35.103Z,99730.28
2022-12-14T21:43:04.846Z,99717.50
2022-12-14T21:45:35.154Z,99720.66
2022-12-14T21:48:05.031Z,99723.41
2022-12-14T21:50:35.373Z,99724.84
2022-12-14T21:53:05.062Z,99719.53
2022-12-14T21:55:36.107Z,99725.81
2022-12-14T21:58:16.390Z,99730.31
2022-12-14T22:00:46.756Z,99735.50
2022-12-14T22:03:16.560Z,99734.03
2022-12-14T22:05:46.125Z,99734.13
2022-12-14T22:08:15.692Z,99724.81
2022-12-14T22:10:46.692Z,99735.22
2022-12-14T22:13:16.300Z,99738.06
2022-12-14T22:15:45.828Z,99739.28
2022-12-14T22:18:19.021Z,99731.63
2022-12-14T22:20:48.552Z,99743.34
2022-12-14T22:23:18.177Z,99743.16
2022-12-14T22:25:52.023Z,99738.75
2022-12-14T22:28:21.537Z,99741.13
2022-12-14T22:30:51.406Z,99730.97
2022-12-14T22:33:21.052Z,99718.44
2022-12-14T22:35:50.578Z,99745.97
2022-12-14T22:38:20.153Z,99756.22
2022-12-14T22:40:49.705Z,99745.09
2022-12-14T22:43:27.509Z,99738.06
2022-12-14T22:46:01.726Z,99739.03
2022-12-14T22:48:33.673Z,99756.44
2022-12-14T22:51:04.237Z,99758.78
2022-12-14T22:53:34.215Z,99773.34
2022-12-14T22:56:10.683Z,99764.22
2022-12-14T22:58:44.918Z,99758.38
2022-12-14T23:01:20.136Z,99771.66
2022-12-14T23:03:50.335Z,99744.59
2022-12-14T23:06:20.920Z,99771.44
2022-12-14T23:09:08.505Z,99772.38
2022-12-14T23:11:55.327Z,99761.31
2022-12-14T23:14:43.962Z,99771.66
2022-12-14T23:17:30.930Z,99770.50
2022-12-14T23:20:17.784Z,99779.44
2022-12-14T23:23:04.804Z,99773.44
2022-12-14T23:25:52.727Z,99785.16
2022-12-14T23:28:40.024Z,99769.94
2022-12-14T23:31:28.684Z,99789.44
2022-12-14T23:34:15.264Z,99774.94
2022-12-14T23:37:02.223Z,99772.25
2022-12-14T23:39:49.239Z,99788.09
2022-12-14T23:42:36.136Z,99785.72
2022-12-14T23:45:23.473Z,99776.53
2022-12-14T23:48:15.224Z,99786.84
2022-12-14T23:51:02.114Z,99784.94
2022-12-14T23:53:49.821Z,99772.59
2022-12-14T23:56:37.192Z,99783.97
2022-12-14T23:59:29.764Z,99782.09
